sensor_id;sensor_type;location;lat;lon;timestamp;P1;durP1;ratioP1;P2;durP2;ratioP2
3225;SDS011;1625;49.884;8.666;2022-11-02T00:03:44;2.60;;;1.80;;
3225;SDS011;1625;49.884;8.666;2022-11-02T00:06:10;4.87;;;2.27;;
3225;SDS011;1625;49.884;8.666;2022-11-02T00:08:36;4.60;;;2.20;;
3225;SDS011;1625;49.884;8.666;2022-11-02T00:11:02;3.80;;;1.87;;
3225;SDS011;1625;49.884;8.666;2022-11-02T00:13:27;3.90;;;2.10;;
3225;SDS011;1625;49.884;8.666;2022-11-02T00:15:53;5.30;;;1.90;;
3225;SDS011;1625;49.884;8.666;2022-11-02T00:18:19;3.57;;;2.10;;
3225;SDS011;1625;49.884;8.666;2022-11-02T00:20:45;5.43;;;2.67;;
3225;SDS011;1625;49.884;8.666;2022-11-02T00:23:11;5.77;;;1.70;;
3225;SDS011;1625;49.884;8.666;2022-11-02T00:25:39;7.27;;;2.43;;
3225;SDS011;1625;49.884;8.666;2022-11-02T00:28:06;3.83;;;2.10;;
3225;SDS011;1625;49.884;8.666;2022-11-02T00:30:32;4.30;;;1.90;;
3225;SDS011;1625;49.884;8.666;2022-11-02T00:32:58;4.67;;;1.60;;
3225;SDS011;1625;49.884;8.666;2022-11-02T00:35:23;4.33;;;2.03;;
3225;SDS011;1625;49.884;8.666;2022-11-02T00:37:49;2.80;;;1.80;;
3225;SDS011;1625;49.884;8.666;2022-11-02T00:40:14;5.30;;;1.80;;
3225;SDS011;1625;49.884;8.666;2022-11-02T00:42:40;4.40;;;2.20;;
3225;SDS011;1625;49.884;8.666;2022-11-02T00:45:05;2.37;;;1.70;;
3225;SDS011;1625;49.884;8.666;2022-11-02T00:47:32;7.00;;;2.20;;
3225;SDS011;1625;49.884;8.666;2022-11-02T00:49:58;3.93;;;1.60;;
3225;SDS011;1625;49.884;8.666;2022-11-02T00:52:23;6.30;;;2.30;;
3225;SDS011;1625;49.884;8.666;2022-11-02T00:54:49;3.30;;;2.20;;
3225;SDS011;1625;49.884;8.666;2022-11-02T00:57:14;4.47;;;2.03;;
3225;SDS011;1625;49.884;8.666;2022-11-02T00:59:40;3.47;;;2.00;;
3225;SDS011;1625;49.884;8.666;2022-11-02T01:02:06;3.67;;;1.70;;
3225;SDS011;1625;49.884;8.666;2022-11-02T01:04:31;6.03;;;2.50;;
3225;SDS011;1625;49.884;8.666;2022-11-02T01:06:57;4.10;;;1.70;;
3225;SDS011;1625;49.884;8.666;2022-11-02T01:09:23;2.30;;;1.80;;
3225;SDS011;1625;49.884;8.666;2022-11-02T01:11:48;4.93;;;2.27;;
3225;SDS011;1625;49.884;8.666;2022-11-02T01:14:14;3.40;;;1.60;;
3225;SDS011;1625;49.884;8.666;2022-11-02T01:16:39;3.37;;;2.17;;
3225;SDS011;1625;49.884;8.666;2022-11-02T01:19:05;3.10;;;2.10;;
3225;SDS011;1625;49.884;8.666;2022-11-02T01:21:31;3.83;;;2.03;;
3225;SDS011;1625;49.884;8.666;2022-11-02T01:23:57;3.43;;;2.00;;
3225;SDS011;1625;49.884;8.666;2022-11-02T01:26:23;2.73;;;2.10;;
3225;SDS011;1625;49.884;8.666;2022-11-02T01:28:48;4.13;;;2.00;;
3225;SDS011;1625;49.884;8.666;2022-11-02T01:31:17;2.87;;;1.93;;
3225;SDS011;1625;49.884;8.666;2022-11-02T01:33:43;5.43;;;2.60;;
3225;SDS011;1625;49.884;8.666;2022-11-02T01:36:10;5.63;;;2.43;;
3225;SDS011;1625;49.884;8.666;2022-11-02T01:38:36;3.97;;;2.10;;
3225;SDS011;1625;49.884;8.666;2022-11-02T01:41:02;4.17;;;2.07;;
3225;SDS011;1625;49.884;8.666;2022-11-02T01:43:29;8.37;;;2.33;;
3225;SDS011;1625;49.884;8.666;2022-11-02T01:51:09;2.80;;;1.83;;
3225;SDS011;1625;49.884;8.666;2022-11-02T01:53:46;7.43;;;1.87;;
3225;SDS011;1625;49.884;8.666;2022-11-02T01:56:14;5.53;;;2.00;;
3225;SDS011;1625;49.884;8.666;2022-11-02T01:58:41;4.07;;;2.30;;
3225;SDS011;1625;49.884;8.666;2022-11-02T02:01:10;3.00;;;2.00;;
3225;SDS011;1625;49.884;8.666;2022-11-02T02:03:36;6.30;;;2.00;;
3225;SDS011;1625;49.884;8.666;2022-11-02T02:06:07;5.57;;;2.50;;
3225;SDS011;1625;49.884;8.666;2022-11-02T02:08:37;3.90;;;2.73;;
3225;SDS011;1625;49.884;8.666;2022-11-02T02:11:24;4.30;;;2.00;;
3225;SDS011;1625;49.884;8.666;2022-11-02T02:13:56;7.97;;;2.17;;
3225;SDS011;1625;49.884;8.666;2022-11-02T02:25:13;8.20;;;2.50;;
3225;SDS011;1625;49.884;8.666;2022-11-02T02:28:18;4.17;;;1.80;;
3225;SDS011;1625;49.884;8.666;2022-11-02T02:33:17;5.30;;;1.80;;
3225;SDS011;1625;49.884;8.666;2022-11-02T02:35:56;4.60;;;2.20;;
3225;SDS011;1625;49.884;8.666;2022-11-02T02:38:29;6.10;;;2.10;;
3225;SDS011;1625;49.884;8.666;2022-11-02T02:43:49;4.43;;;2.10;;
3225;SDS011;1625;49.884;8.666;2022-11-02T02:46:29;4.17;;;2.10;;
3225;SDS011;1625;49.884;8.666;2022-11-02T02:49:03;3.03;;;2.23;;
3225;SDS011;1625;49.884;8.666;2022-11-02T02:51:32;3.67;;;2.37;;
3225;SDS011;1625;49.884;8.666;2022-11-02T02:54:02;4.97;;;2.33;;
3225;SDS011;1625;49.884;8.666;2022-11-02T02:56:35;5.43;;;2.43;;
3225;SDS011;1625;49.884;8.666;2022-11-02T02:59:23;5.07;;;1.90;;
3225;SDS011;1625;49.884;8.666;2022-11-02T03:01:56;4.83;;;2.20;;
3225;SDS011;1625;49.884;8.666;2022-11-02T03:04:23;3.90;;;2.10;;
3225;SDS011;1625;49.884;8.666;2022-11-02T03:06:51;5.30;;;2.40;;
3225;SDS011;1625;49.884;8.666;2022-11-02T03:12:12;3.70;;;2.17;;
3225;SDS011;1625;49.884;8.666;2022-11-02T03:14:52;5.20;;;2.37;;
3225;SDS011;1625;49.884;8.666;2022-11-02T03:17:23;7.73;;;2.27;;
3225;SDS011;1625;49.884;8.666;2022-11-02T03:22:25;5.63;;;2.30;;
3225;SDS011;1625;49.884;8.666;2022-11-02T03:24:58;6.40;;;2.07;;
3225;SDS011;1625;49.884;8.666;2022-11-02T03:30:27;6.30;;;2.23;;
3225;SDS011;1625;49.884;8.666;2022-11-02T03:33:05;6.30;;;2.53;;
3225;SDS011;1625;49.884;8.666;2022-11-02T03:38:06;4.53;;;2.40;;
3225;SDS011;1625;49.884;8.666;2022-11-02T03:40:38;5.33;;;2.50;;
3225;SDS011;1625;49.884;8.666;2022-11-02T03:43:08;3.00;;;2.60;;
3225;SDS011;1625;49.884;8.666;2022-11-02T03:45:36;4.20;;;2.60;;
3225;SDS011;1625;49.884;8.666;2022-11-02T03:48:06;4.50;;;2.67;;
3225;SDS011;1625;49.884;8.666;2022-11-02T03:50:35;5.17;;;2.70;;
3225;SDS011;1625;49.884;8.666;2022-11-02T03:53:09;7.60;;;2.37;;
3225;SDS011;1625;49.884;8.666;2022-11-02T03:55:45;4.87;;;2.60;;
3225;SDS011;1625;49.884;8.666;2022-11-02T03:58:14;5.50;;;3.00;;
3225;SDS011;1625;49.884;8.666;2022-11-02T04:00:45;7.33;;;2.33;;
3225;SDS011;1625;49.884;8.666;2022-11-02T04:03:17;5.33;;;2.23;;
3225;SDS011;1625;49.884;8.666;2022-11-02T04:05:44;8.37;;;2.87;;
3225;SDS011;1625;49.884;8.666;2022-11-02T04:08:10;5.43;;;2.70;;
3225;SDS011;1625;49.884;8.666;2022-11-02T04:10:48;7.10;;;2.63;;
3225;SDS011;1625;49.884;8.666;2022-11-02T04:13:33;7.30;;;2.70;;
3225;SDS011;1625;49.884;8.666;2022-11-02T04:16:18;8.23;;;2.70;;
3225;SDS011;1625;49.884;8.666;2022-11-02T04:18:44;6.13;;;2.97;;
3225;SDS011;1625;49.884;8.666;2022-11-02T04:21:28;5.37;;;2.40;;
3225;SDS011;1625;49.884;8.666;2022-11-02T04:23:54;5.20;;;2.60;;
3225;SDS011;1625;49.884;8.666;2022-11-02T04:26:38;4.30;;;2.40;;
3225;SDS011;1625;49.884;8.666;2022-11-02T04:29:08;4.47;;;2.43;;
3225;SDS011;1625;49.884;8.666;2022-11-02T04:31:34;8.40;;;2.80;;
3225;SDS011;1625;49.884;8.666;2022-11-02T04:33:59;6.70;;;3.00;;
3225;SDS011;1625;49.884;8.666;2022-11-02T04:36:28;5.17;;;2.50;;
3225;SDS011;1625;49.884;8.666;2022-11-02T04:38:54;7.03;;;3.13;;
3225;SDS011;1625;49.884;8.666;2022-11-02T04:41:20;7.20;;;2.57;;
3225;SDS011;1625;49.884;8.666;2022-11-02T04:44:06;7.93;;;4.73;;
3225;SDS011;1625;49.884;8.666;2022-11-02T04:46:33;5.40;;;2.70;;
3225;SDS011;1625;49.884;8.666;2022-11-02T04:49:00;4.53;;;2.40;;
3225;SDS011;1625;49.884;8.666;2022-11-02T04:51:27;5.20;;;2.77;;
3225;SDS011;1625;49.884;8.666;2022-11-02T04:53:54;4.53;;;2.77;;
3225;SDS011;1625;49.884;8.666;2022-11-02T04:56:20;6.60;;;2.87;;
3225;SDS011;1625;49.884;8.666;2022-11-02T04:58:47;6.00;;;3.00;;
3225;SDS011;1625;49.884;8.666;2022-11-02T05:01:14;8.70;;;3.13;;
3225;SDS011;1625;49.884;8.666;2022-11-02T05:03:40;8.60;;;2.50;;
3225;SDS011;1625;49.884;8.666;2022-11-02T05:06:07;4.93;;;2.80;;
3225;SDS011;1625;49.884;8.666;2022-11-02T05:08:35;6.33;;;3.03;;
3225;SDS011;1625;49.884;8.666;2022-11-02T05:11:00;7.60;;;3.10;;
3225;SDS011;1625;49.884;8.666;2022-11-02T05:13:26;7.17;;;2.80;;
3225;SDS011;1625;49.884;8.666;2022-11-02T05:15:55;4.40;;;2.67;;
3225;SDS011;1625;49.884;8.666;2022-11-02T05:18:22;4.33;;;2.57;;
3225;SDS011;1625;49.884;8.666;2022-11-02T05:20:48;4.23;;;2.73;;
3225;SDS011;1625;49.884;8.666;2022-11-02T05:23:15;7.27;;;2.87;;
3225;SDS011;1625;49.884;8.666;2022-11-02T05:25:40;7.63;;;2.70;;
3225;SDS011;1625;49.884;8.666;2022-11-02T05:28:06;4.50;;;2.80;;
3225;SDS011;1625;49.884;8.666;2022-11-02T05:30:31;7.03;;;2.67;;
3225;SDS011;1625;49.884;8.666;2022-11-02T05:32:57;4.17;;;3.23;;
3225;SDS011;1625;49.884;8.666;2022-11-02T05:35:22;8.43;;;2.90;;
3225;SDS011;1625;49.884;8.666;2022-11-02T05:37:48;3.77;;;2.50;;
3225;SDS011;1625;49.884;8.666;2022-11-02T05:40:14;5.77;;;3.23;;
3225;SDS011;1625;49.884;8.666;2022-11-02T05:42:39;4.90;;;2.67;;
3225;SDS011;1625;49.884;8.666;2022-11-02T05:45:05;4.63;;;3.00;;
3225;SDS011;1625;49.884;8.666;2022-11-02T05:47:32;3.57;;;2.83;;
3225;SDS011;1625;49.884;8.666;2022-11-02T05:49:58;7.03;;;3.30;;
3225;SDS011;1625;49.884;8.666;2022-11-02T05:52:23;8.97;;;3.60;;
3225;SDS011;1625;49.884;8.666;2022-11-02T05:54:49;7.70;;;2.87;;
3225;SDS011;1625;49.884;8.666;2022-11-02T05:57:14;4.23;;;2.70;;
3225;SDS011;1625;49.884;8.666;2022-11-02T05:59:41;4.87;;;2.87;;
3225;SDS011;1625;49.884;8.666;2022-11-02T06:02:07;4.10;;;2.40;;
3225;SDS011;1625;49.884;8.666;2022-11-02T06:04:32;7.40;;;3.03;;
3225;SDS011;1625;49.884;8.666;2022-11-02T06:06:58;6.17;;;3.20;;
3225;SDS011;1625;49.884;8.666;2022-11-02T06:09:23;8.93;;;3.37;;
3225;SDS011;1625;49.884;8.666;2022-11-02T06:11:49;8.37;;;2.70;;
3225;SDS011;1625;49.884;8.666;2022-11-02T06:14:14;6.00;;;2.70;;
3225;SDS011;1625;49.884;8.666;2022-11-02T06:16:40;8.83;;;2.97;;
3225;SDS011;1625;49.884;8.666;2022-11-02T06:19:05;4.60;;;2.50;;
3225;SDS011;1625;49.884;8.666;2022-11-02T06:21:31;7.90;;;2.83;;
3225;SDS011;1625;49.884;8.666;2022-11-02T06:23:56;5.50;;;2.57;;
3225;SDS011;1625;49.884;8.666;2022-11-02T06:26:23;5.10;;;2.67;;
3225;SDS011;1625;49.884;8.666;2022-11-02T06:28:48;6.93;;;2.80;;
3225;SDS011;1625;49.884;8.666;2022-11-02T06:31:14;5.50;;;2.83;;
3225;SDS011;1625;49.884;8.666;2022-11-02T06:33:41;5.37;;;2.50;;
3225;SDS011;1625;49.884;8.666;2022-11-02T06:36:09;7.17;;;2.50;;
3225;SDS011;1625;49.884;8.666;2022-11-02T06:38:35;4.67;;;3.00;;
3225;SDS011;1625;49.884;8.666;2022-11-02T06:41:02;4.43;;;2.70;;
3225;SDS011;1625;49.884;8.666;2022-11-02T06:43:30;3.50;;;2.33;;
3225;SDS011;1625;49.884;8.666;2022-11-02T06:45:56;5.13;;;2.90;;
3225;SDS011;1625;49.884;8.666;2022-11-02T06:48:23;5.73;;;2.77;;
3225;SDS011;1625;49.884;8.666;2022-11-02T06:50:50;5.27;;;2.30;;
3225;SDS011;1625;49.884;8.666;2022-11-02T06:53:15;6.50;;;2.83;;
3225;SDS011;1625;49.884;8.666;2022-11-02T06:55:42;7.17;;;2.80;;
3225;SDS011;1625;49.884;8.666;2022-11-02T06:58:08;5.13;;;2.77;;
3225;SDS011;1625;49.884;8.666;2022-11-02T07:00:33;3.70;;;2.23;;
3225;SDS011;1625;49.884;8.666;2022-11-02T07:03:00;9.10;;;2.97;;
3225;SDS011;1625;49.884;8.666;2022-11-02T07:05:28;4.90;;;2.23;;
3225;SDS011;1625;49.884;8.666;2022-11-02T07:07:54;7.63;;;3.23;;
3225;SDS011;1625;49.884;8.666;2022-11-02T07:10:20;7.80;;;3.70;;
3225;SDS011;1625;49.884;8.666;2022-11-02T07:12:45;3.20;;;2.57;;
3225;SDS011;1625;49.884;8.666;2022-11-02T07:15:11;7.27;;;2.93;;
3225;SDS011;1625;49.884;8.666;2022-11-02T07:17:39;6.90;;;3.07;;
3225;SDS011;1625;49.884;8.666;2022-11-02T07:20:13;5.30;;;2.70;;
3225;SDS011;1625;49.884;8.666;2022-11-02T07:22:52;7.47;;;2.77;;
3225;SDS011;1625;49.884;8.666;2022-11-02T07:25:19;5.50;;;2.63;;
3225;SDS011;1625;49.884;8.666;2022-11-02T07:27:45;6.33;;;2.50;;
3225;SDS011;1625;49.884;8.666;2022-11-02T07:30:11;5.60;;;3.03;;
3225;SDS011;1625;49.884;8.666;2022-11-02T07:32:40;4.60;;;2.97;;
3225;SDS011;1625;49.884;8.666;2022-11-02T07:35:07;9.17;;;3.50;;
3225;SDS011;1625;49.884;8.666;2022-11-02T07:37:34;6.90;;;2.93;;
3225;SDS011;1625;49.884;8.666;2022-11-02T07:40:00;6.33;;;2.70;;
3225;SDS011;1625;49.884;8.666;2022-11-02T07:42:25;4.40;;;2.80;;
3225;SDS011;1625;49.884;8.666;2022-11-02T07:44:51;3.83;;;2.57;;
3225;SDS011;1625;49.884;8.666;2022-11-02T07:47:16;5.27;;;2.70;;
3225;SDS011;1625;49.884;8.666;2022-11-02T07:49:42;7.27;;;2.93;;
3225;SDS011;1625;49.884;8.666;2022-11-02T07:52:10;6.17;;;3.43;;
3225;SDS011;1625;49.884;8.666;2022-11-02T07:54:36;3.43;;;2.53;;
3225;SDS011;1625;49.884;8.666;2022-11-02T07:57:02;4.90;;;3.10;;
3225;SDS011;1625;49.884;8.666;2022-11-02T07:59:33;6.10;;;2.50;;
3225;SDS011;1625;49.884;8.666;2022-11-02T08:02:00;4.37;;;2.70;;
3225;SDS011;1625;49.884;8.666;2022-11-02T08:04:26;4.33;;;3.03;;
3225;SDS011;1625;49.884;8.666;2022-11-02T08:06:52;8.50;;;3.27;;
3225;SDS011;1625;49.884;8.666;2022-11-02T08:09:17;5.07;;;2.93;;
3225;SDS011;1625;49.884;8.666;2022-11-02T08:11:43;6.33;;;2.90;;
3225;SDS011;1625;49.884;8.666;2022-11-02T08:14:09;6.40;;;2.93;;
3225;SDS011;1625;49.884;8.666;2022-11-02T08:16:36;5.10;;;3.10;;
3225;SDS011;1625;49.884;8.666;2022-11-02T08:19:01;3.13;;;2.80;;
3225;SDS011;1625;49.884;8.666;2022-11-02T08:21:27;6.20;;;3.03;;
3225;SDS011;1625;49.884;8.666;2022-11-02T08:23:52;4.87;;;2.80;;
3225;SDS011;1625;49.884;8.666;2022-11-02T08:26:19;5.50;;;2.73;;
3225;SDS011;1625;49.884;8.666;2022-11-02T08:28:45;7.50;;;3.00;;
3225;SDS011;1625;49.884;8.666;2022-11-02T08:31:13;7.47;;;2.93;;
3225;SDS011;1625;49.884;8.666;2022-11-02T08:33:44;9.60;;;3.43;;
3225;SDS011;1625;49.884;8.666;2022-11-02T08:36:10;4.30;;;2.60;;
3225;SDS011;1625;49.884;8.666;2022-11-02T08:38:36;4.63;;;2.73;;
3225;SDS011;1625;49.884;8.666;2022-11-02T08:41:03;8.30;;;3.27;;
3225;SDS011;1625;49.884;8.666;2022-11-02T08:43:30;6.53;;;2.70;;
3225;SDS011;1625;49.884;8.666;2022-11-02T08:45:57;11.60;;;3.70;;
3225;SDS011;1625;49.884;8.666;2022-11-02T08:48:25;7.93;;;3.30;;
3225;SDS011;1625;49.884;8.666;2022-11-02T08:50:51;6.27;;;2.77;;
3225;SDS011;1625;49.884;8.666;2022-11-02T08:53:18;6.60;;;2.70;;
3225;SDS011;1625;49.884;8.666;2022-11-02T08:55:43;5.90;;;2.93;;
3225;SDS011;1625;49.884;8.666;2022-11-02T08:58:09;11.83;;;2.80;;
3225;SDS011;1625;49.884;8.666;2022-11-02T09:00:34;9.60;;;3.43;;
3225;SDS011;1625;49.884;8.666;2022-11-02T09:03:04;11.33;;;3.23;;
3225;SDS011;1625;49.884;8.666;2022-11-02T09:05:36;5.83;;;2.60;;
3225;SDS011;1625;49.884;8.666;2022-11-02T09:08:04;9.97;;;2.90;;
3225;SDS011;1625;49.884;8.666;2022-11-02T09:10:32;3.43;;;2.63;;
3225;SDS011;1625;49.884;8.666;2022-11-02T09:13:00;7.10;;;2.73;;
3225;SDS011;1625;49.884;8.666;2022-11-02T09:15:27;4.67;;;2.10;;
3225;SDS011;1625;49.884;8.666;2022-11-02T09:17:53;4.70;;;2.10;;
3225;SDS011;1625;49.884;8.666;2022-11-02T09:20:19;6.73;;;2.50;;
3225;SDS011;1625;49.884;8.666;2022-11-02T09:22:45;6.23;;;2.70;;
3225;SDS011;1625;49.884;8.666;2022-11-02T09:25:11;5.33;;;2.43;;
3225;SDS011;1625;49.884;8.666;2022-11-02T09:27:37;4.40;;;2.20;;
3225;SDS011;1625;49.884;8.666;2022-11-02T09:30:03;11.20;;;3.40;;
3225;SDS011;1625;49.884;8.666;2022-11-02T09:32:30;3.27;;;2.27;;
3225;SDS011;1625;49.884;8.666;2022-11-02T09:34:58;8.20;;;2.60;;
3225;SDS011;1625;49.884;8.666;2022-11-02T09:37:25;5.00;;;2.23;;
3225;SDS011;1625;49.884;8.666;2022-11-02T09:39:51;5.67;;;2.40;;
3225;SDS011;1625;49.884;8.666;2022-11-02T09:42:18;6.63;;;2.90;;
3225;SDS011;1625;49.884;8.666;2022-11-02T09:44:49;6.90;;;2.57;;
3225;SDS011;1625;49.884;8.666;2022-11-02T09:47:38;8.23;;;2.40;;
3225;SDS011;1625;49.884;8.666;2022-11-02T09:50:08;10.40;;;4.60;;
3225;SDS011;1625;49.884;8.666;2022-11-02T09:52:40;9.87;;;3.17;;
3225;SDS011;1625;49.884;8.666;2022-11-02T09:55:11;8.50;;;2.90;;
3225;SDS011;1625;49.884;8.666;2022-11-02T09:57:42;8.30;;;1.93;;
3225;SDS011;1625;49.884;8.666;2022-11-02T10:00:13;4.50;;;2.23;;
3225;SDS011;1625;49.884;8.666;2022-11-02T10:05:30;5.47;;;3.40;;
3225;SDS011;1625;49.884;8.666;2022-11-02T10:08:21;5.37;;;2.40;;
3225;SDS011;1625;49.884;8.666;2022-11-02T10:11:14;6.57;;;2.73;;
3225;SDS011;1625;49.884;8.666;2022-11-02T10:14:11;9.63;;;2.30;;
3225;SDS011;1625;49.884;8.666;2022-11-02T10:16:51;5.07;;;2.67;;
3225;SDS011;1625;49.884;8.666;2022-11-02T10:19:38;6.23;;;2.70;;
3225;SDS011;1625;49.884;8.666;2022-11-02T10:22:07;5.93;;;2.00;;
3225;SDS011;1625;49.884;8.666;2022-11-02T10:27:11;5.03;;;2.77;;
3225;SDS011;1625;49.884;8.666;2022-11-02T10:30:03;3.93;;;2.20;;
3225;SDS011;1625;49.884;8.666;2022-11-02T10:32:36;5.50;;;2.00;;
3225;SDS011;1625;49.884;8.666;2022-11-02T10:35:04;5.43;;;2.60;;
3225;SDS011;1625;49.884;8.666;2022-11-02T10:38:09;5.93;;;3.03;;
3225;SDS011;1625;49.884;8.666;2022-11-02T10:43:42;5.27;;;2.23;;
3225;SDS011;1625;49.884;8.666;2022-11-02T10:51:38;2.93;;;2.03;;
3225;SDS011;1625;49.884;8.666;2022-11-02T10:54:07;10.30;;;2.40;;
3225;SDS011;1625;49.884;8.666;2022-11-02T10:56:38;7.63;;;2.57;;
3225;SDS011;1625;49.884;8.666;2022-11-02T10:59:18;3.40;;;2.10;;
3225;SDS011;1625;49.884;8.666;2022-11-02T11:04:21;5.87;;;2.20;;
3225;SDS011;1625;49.884;8.666;2022-11-02T11:06:53;9.53;;;2.57;;
3225;SDS011;1625;49.884;8.666;2022-11-02T11:09:22;5.70;;;2.20;;
3225;SDS011;1625;49.884;8.666;2022-11-02T11:14:29;7.40;;;2.47;;
3225;SDS011;1625;49.884;8.666;2022-11-02T11:17:01;7.47;;;2.40;;
3225;SDS011;1625;49.884;8.666;2022-11-02T11:19:46;4.40;;;1.90;;
3225;SDS011;1625;49.884;8.666;2022-11-02T11:22:24;5.73;;;2.20;;
3225;SDS011;1625;49.884;8.666;2022-11-02T11:25:17;8.00;;;2.53;;
3225;SDS011;1625;49.884;8.666;2022-11-02T11:27:57;7.70;;;2.60;;
3225;SDS011;1625;49.884;8.666;2022-11-02T11:32:58;4.73;;;2.33;;
3225;SDS011;1625;49.884;8.666;2022-11-02T11:35:29;3.80;;;1.90;;
3225;SDS011;1625;49.884;8.666;2022-11-02T11:38:00;4.40;;;2.30;;
3225;SDS011;1625;49.884;8.666;2022-11-02T11:40:34;4.00;;;2.13;;
3225;SDS011;1625;49.884;8.666;2022-11-02T11:43:11;5.40;;;2.37;;
3225;SDS011;1625;49.884;8.666;2022-11-02T11:45:40;6.50;;;2.80;;
3225;SDS011;1625;49.884;8.666;2022-11-02T11:48:33;8.43;;;2.40;;
3225;SDS011;1625;49.884;8.666;2022-11-02T11:51:02;4.37;;;1.67;;
3225;SDS011;1625;49.884;8.666;2022-11-02T11:53:29;6.20;;;2.13;;
3225;SDS011;1625;49.884;8.666;2022-11-02T11:55:56;8.00;;;2.33;;
3225;SDS011;1625;49.884;8.666;2022-11-02T11:58:30;4.80;;;1.90;;
3225;SDS011;1625;49.884;8.666;2022-11-02T12:01:09;5.27;;;2.20;;
3225;SDS011;1625;49.884;8.666;2022-11-02T12:03:54;4.57;;;2.00;;
3225;SDS011;1625;49.884;8.666;2022-11-02T12:28:05;4.57;;;1.97;;
3225;SDS011;1625;49.884;8.666;2022-11-02T12:33:34;6.53;;;2.63;;
3225;SDS011;1625;49.884;8.666;2022-11-02T12:39:24;4.70;;;2.13;;
3225;SDS011;1625;49.884;8.666;2022-11-02T12:42:00;3.23;;;1.93;;
3225;SDS011;1625;49.884;8.666;2022-11-02T12:47:42;10.33;;;2.60;;
3225;SDS011;1625;49.884;8.666;2022-11-02T12:56:18;4.53;;;2.17;;
3225;SDS011;1625;49.884;8.666;2022-11-02T12:58:51;5.57;;;2.20;;
3225;SDS011;1625;49.884;8.666;2022-11-02T13:01:19;4.20;;;1.70;;
3225;SDS011;1625;49.884;8.666;2022-11-02T13:06:29;5.10;;;2.20;;
3225;SDS011;1625;49.884;8.666;2022-11-02T13:09:06;5.27;;;2.40;;
3225;SDS011;1625;49.884;8.666;2022-11-02T13:11:42;8.23;;;2.50;;
3225;SDS011;1625;49.884;8.666;2022-11-02T13:14:16;10.03;;;4.47;;
3225;SDS011;1625;49.884;8.666;2022-11-02T13:17:02;17.60;;;12.80;;
3225;SDS011;1625;49.884;8.666;2022-11-02T13:19:35;11.30;;;6.70;;
3225;SDS011;1625;49.884;8.666;2022-11-02T13:22:06;5.30;;;2.30;;
3225;SDS011;1625;49.884;8.666;2022-11-02T13:24:39;6.00;;;2.87;;
3225;SDS011;1625;49.884;8.666;2022-11-02T13:27:16;9.03;;;7.13;;
3225;SDS011;1625;49.884;8.666;2022-11-02T13:29:54;2.93;;;2.10;;
3225;SDS011;1625;49.884;8.666;2022-11-02T13:32:27;4.50;;;2.50;;
3225;SDS011;1625;49.884;8.666;2022-11-02T13:37:42;4.90;;;1.77;;
3225;SDS011;1625;49.884;8.666;2022-11-02T13:40:13;3.70;;;2.10;;
3225;SDS011;1625;49.884;8.666;2022-11-02T13:51:15;5.37;;;2.20;;
3225;SDS011;1625;49.884;8.666;2022-11-02T13:53:53;5.17;;;2.40;;
3225;SDS011;1625;49.884;8.666;2022-11-02T13:56:26;7.67;;;2.30;;
3225;SDS011;1625;49.884;8.666;2022-11-02T13:59:04;3.70;;;2.00;;
3225;SDS011;1625;49.884;8.666;2022-11-02T14:01:34;6.50;;;2.23;;
3225;SDS011;1625;49.884;8.666;2022-11-02T14:04:06;4.03;;;2.40;;
3225;SDS011;1625;49.884;8.666;2022-11-02T14:07:15;3.70;;;2.37;;
3225;SDS011;1625;49.884;8.666;2022-11-02T14:09:31;5.43;;;2.30;;
3225;SDS011;1625;49.884;8.666;2022-11-02T14:18:37;4.80;;;2.20;;
3225;SDS011;1625;49.884;8.666;2022-11-02T14:25:46;4.10;;;2.40;;
3225;SDS011;1625;49.884;8.666;2022-11-02T14:30:45;7.77;;;2.17;;
3225;SDS011;1625;49.884;8.666;2022-11-02T14:33:36;4.67;;;2.23;;
3225;SDS011;1625;49.884;8.666;2022-11-02T14:44:01;3.50;;;2.00;;
3225;SDS011;1625;49.884;8.666;2022-11-02T14:46:53;4.00;;;2.30;;
3225;SDS011;1625;49.884;8.666;2022-11-02T14:49:30;7.23;;;2.40;;
3225;SDS011;1625;49.884;8.666;2022-11-02T14:54:27;5.47;;;2.17;;
3225;SDS011;1625;49.884;8.666;2022-11-02T14:57:03;7.57;;;2.77;;
3225;SDS011;1625;49.884;8.666;2022-11-02T14:59:39;8.70;;;4.90;;
3225;SDS011;1625;49.884;8.666;2022-11-02T15:02:19;8.30;;;2.37;;
3225;SDS011;1625;49.884;8.666;2022-11-02T15:04:57;6.70;;;2.53;;
3225;SDS011;1625;49.884;8.666;2022-11-02T15:07:39;3.53;;;2.07;;
3225;SDS011;1625;49.884;8.666;2022-11-02T15:26:13;6.93;;;2.57;;
3225;SDS011;1625;49.884;8.666;2022-11-02T15:28:43;3.60;;;2.10;;
3225;SDS011;1625;49.884;8.666;2022-11-02T15:31:14;6.27;;;2.10;;
3225;SDS011;1625;49.884;8.666;2022-11-02T15:33:43;5.97;;;2.30;;
3225;SDS011;1625;49.884;8.666;2022-11-02T15:36:21;6.77;;;4.00;;
3225;SDS011;1625;49.884;8.666;2022-11-02T15:38:52;4.30;;;2.67;;
3225;SDS011;1625;49.884;8.666;2022-11-02T15:54:59;5.50;;;3.10;;
3225;SDS011;1625;49.884;8.666;2022-11-02T15:57:51;8.50;;;3.20;;
3225;SDS011;1625;49.884;8.666;2022-11-02T16:00:24;6.93;;;3.67;;
3225;SDS011;1625;49.884;8.666;2022-11-02T16:03:00;4.57;;;2.83;;
3225;SDS011;1625;49.884;8.666;2022-11-02T16:05:49;7.53;;;3.40;;
3225;SDS011;1625;49.884;8.666;2022-11-02T16:08:30;5.10;;;3.37;;
3225;SDS011;1625;49.884;8.666;2022-11-02T16:11:04;6.03;;;3.60;;
3225;SDS011;1625;49.884;8.666;2022-11-02T16:13:37;6.50;;;3.33;;
3225;SDS011;1625;49.884;8.666;2022-11-02T16:16:04;5.20;;;3.40;;
3225;SDS011;1625;49.884;8.666;2022-11-02T16:18:37;6.07;;;3.97;;
3225;SDS011;1625;49.884;8.666;2022-11-02T16:21:05;5.80;;;4.10;;
3225;SDS011;1625;49.884;8.666;2022-11-02T16:23:35;13.60;;;9.93;;
3225;SDS011;1625;49.884;8.666;2022-11-02T16:26:04;12.50;;;7.90;;
3225;SDS011;1625;49.884;8.666;2022-11-02T16:28:34;10.63;;;7.90;;
3225;SDS011;1625;49.884;8.666;2022-11-02T16:36:06;15.40;;;13.03;;
3225;SDS011;1625;49.884;8.666;2022-11-02T17:07:14;12.40;;;9.40;;
3225;SDS011;1625;49.884;8.666;2022-11-02T17:09:48;10.50;;;8.20;;
3225;SDS011;1625;49.884;8.666;2022-11-02T17:15:44;8.10;;;5.73;;
3225;SDS011;1625;49.884;8.666;2022-11-02T17:22:03;5.97;;;5.20;;
3225;SDS011;1625;49.884;8.666;2022-11-02T17:24:34;14.83;;;7.03;;
3225;SDS011;1625;49.884;8.666;2022-11-02T17:39:30;21.97;;;9.30;;
3225;SDS011;1625;49.884;8.666;2022-11-02T17:52:57;8.33;;;4.50;;
3225;SDS011;1625;49.884;8.666;2022-11-02T18:06:25;5.50;;;3.70;;
3225;SDS011;1625;49.884;8.666;2022-11-02T18:08:53;10.70;;;5.17;;
3225;SDS011;1625;49.884;8.666;2022-11-02T18:11:36;13.30;;;7.50;;
3225;SDS011;1625;49.884;8.666;2022-11-02T18:14:14;27.90;;;13.70;;
3225;SDS011;1625;49.884;8.666;2022-11-02T18:16:42;33.43;;;15.30;;
3225;SDS011;1625;49.884;8.666;2022-11-02T18:19:19;43.20;;;20.80;;
3225;SDS011;1625;49.884;8.666;2022-11-02T18:21:45;28.70;;;16.47;;
3225;SDS011;1625;49.884;8.666;2022-11-02T18:24:12;14.40;;;10.00;;
3225;SDS011;1625;49.884;8.666;2022-11-02T18:26:38;16.90;;;9.70;;
3225;SDS011;1625;49.884;8.666;2022-11-02T18:29:04;11.00;;;6.63;;
3225;SDS011;1625;49.884;8.666;2022-11-02T18:31:34;9.80;;;5.07;;
3225;SDS011;1625;49.884;8.666;2022-11-02T18:34:01;7.33;;;5.37;;
3225;SDS011;1625;49.884;8.666;2022-11-02T18:36:28;8.20;;;5.70;;
3225;SDS011;1625;49.884;8.666;2022-11-02T18:38:56;6.30;;;5.20;;
3225;SDS011;1625;49.884;8.666;2022-11-02T18:41:22;7.97;;;5.30;;
3225;SDS011;1625;49.884;8.666;2022-11-02T18:44:02;6.43;;;3.70;;
3225;SDS011;1625;49.884;8.666;2022-11-02T18:46:31;7.30;;;4.73;;
3225;SDS011;1625;49.884;8.666;2022-11-02T18:48:57;11.40;;;5.07;;
3225;SDS011;1625;49.884;8.666;2022-11-02T18:51:23;6.90;;;4.57;;
3225;SDS011;1625;49.884;8.666;2022-11-02T18:54:03;10.67;;;5.00;;
3225;SDS011;1625;49.884;8.666;2022-11-02T18:57:32;10.53;;;4.57;;
3225;SDS011;1625;49.884;8.666;2022-11-02T18:59:58;5.00;;;4.40;;
3225;SDS011;1625;49.884;8.666;2022-11-02T19:02:26;13.10;;;5.90;;
3225;SDS011;1625;49.884;8.666;2022-11-02T19:04:55;9.13;;;4.37;;
3225;SDS011;1625;49.884;8.666;2022-11-02T19:07:20;8.20;;;5.00;;
3225;SDS011;1625;49.884;8.666;2022-11-02T19:10:05;6.43;;;4.20;;
3225;SDS011;1625;49.884;8.666;2022-11-02T19:12:35;8.43;;;3.70;;
3225;SDS011;1625;49.884;8.666;2022-11-02T19:15:01;7.47;;;4.00;;
3225;SDS011;1625;49.884;8.666;2022-11-02T19:17:28;8.70;;;3.90;;
3225;SDS011;1625;49.884;8.666;2022-11-02T19:19:55;7.30;;;3.60;;
3225;SDS011;1625;49.884;8.666;2022-11-02T19:22:23;8.40;;;3.40;;
3225;SDS011;1625;49.884;8.666;2022-11-02T19:24:50;4.77;;;2.80;;
3225;SDS011;1625;49.884;8.666;2022-11-02T19:27:17;7.20;;;3.67;;
3225;SDS011;1625;49.884;8.666;2022-11-02T19:29:45;8.17;;;5.40;;